createdAt,value
2024-02-13T00:01:43.928Z,15.70
2024-02-13T00:04:33.528Z,15.70
2024-02-13T00:07:21.216Z,15.60
2024-02-13T00:10:13.023Z,15.70
2024-02-13T00:13:00.651Z,15.80
2024-02-13T00:15:48.361Z,15.80
2024-02-13T00:18:35.985Z,15.80
2024-02-13T00:21:24.031Z,15.80
2024-02-13T00:24:11.562Z,15.80
2024-02-13T00:27:00.516Z,15.90
2024-02-13T00:29:48.486Z,15.80
2024-02-13T00:32:40.919Z,15.70
2024-02-13T00:35:30.850Z,15.80
2024-02-13T00:38:18.579Z,15.80
2024-02-13T00:41:06.348Z,15.80
2024-02-13T00:43:55.203Z,15.80
2024-02-13T00:46:42.776Z,15.80
2024-02-13T00:49:30.392Z,15.80
2024-02-13T00:52:18.034Z,15.80
2024-02-13T00:55:08.718Z,15.60
2024-02-13T00:57:56.234Z,15.60
2024-02-13T01:00:43.976Z,15.60
2024-02-13T01:03:32.153Z,15.50
2024-02-13T01:06:19.754Z,15.50
2024-02-13T01:09:08.403Z,15.50
2024-02-13T01:11:56.210Z,15.70
2024-02-13T01:14:43.866Z,15.80
2024-02-13T01:17:31.596Z,16.00
2024-02-13T01:20:19.840Z,15.70
2024-02-13T01:23:07.685Z,15.70
2024-02-13T01:25:55.234Z,15.90
2024-02-13T01:28:42.997Z,15.70
2024-02-13T01:31:34.318Z,15.70
2024-02-13T01:34:22.867Z,15.60
2024-02-13T01:37:10.597Z,15.70
2024-02-13T01:39:58.189Z,15.80
2024-02-13T01:42:49.949Z,15.70
2024-02-13T01:45:37.699Z,15.90
2024-02-13T01:48:28.081Z,15.60
2024-02-13T01:51:18.302Z,15.80
2024-02-13T01:54:12.023Z,15.90
2024-02-13T01:57:00.414Z,15.80
2024-02-13T01:59:48.672Z,16.00
2024-02-13T02:02:37.127Z,15.90
2024-02-13T02:05:24.742Z,15.70
2024-02-13T02:08:15.489Z,15.70
2024-02-13T02:11:04.258Z,15.90
2024-02-13T02:13:53.849Z,15.90
2024-02-13T02:16:41.398Z,15.90
2024-02-13T02:19:29.305Z,15.80
2024-02-13T02:22:16.898Z,15.70
2024-02-13T02:25:09.040Z,15.80
2024-02-13T02:27:56.896Z,15.70
2024-02-13T02:30:47.178Z,15.60
2024-02-13T02:33:34.907Z,15.70
2024-02-13T02:36:23.123Z,15.70
2024-02-13T02:39:10.697Z,15.50
2024-02-13T02:41:58.257Z,15.70
2024-02-13T02:44:45.951Z,15.90
2024-02-13T02:47:35.768Z,15.90
2024-02-13T02:50:23.883Z,15.60
2024-02-13T02:53:12.219Z,15.70
2024-02-13T02:56:00.189Z,15.70
2024-02-13T02:58:47.717Z,15.70
2024-02-13T03:01:35.683Z,15.80
2024-02-13T03:04:23.514Z,15.80
2024-02-13T03:07:11.118Z,15.80
2024-02-13T03:09:59.703Z,15.80
2024-02-13T03:12:47.780Z,15.80
2024-02-13T03:15:35.501Z,15.90
2024-02-13T03:18:26.087Z,15.60
2024-02-13T03:21:13.857Z,15.70
2024-02-13T03:24:01.440Z,15.70
2024-02-13T03:26:49.089Z,15.80
2024-02-13T03:29:37.299Z,15.90
2024-02-13T03:32:26.467Z,15.60
2024-02-13T03:35:14.849Z,15.70
2024-02-13T03:38:03.354Z,15.60
2024-02-13T03:40:50.879Z,15.70
2024-02-13T03:43:42.327Z,15.80
2024-02-13T03:46:30.017Z,15.80
2024-02-13T03:49:17.678Z,15.70
2024-02-13T03:52:05.605Z,15.60
2024-02-13T03:54:53.231Z,15.60
2024-02-13T03:57:41.585Z,15.70
2024-02-13T04:00:29.319Z,15.20
2024-02-13T04:03:16.889Z,15.50
2024-02-13T04:06:07.435Z,15.70
2024-02-13T04:08:57.402Z,15.70
2024-02-13T04:11:47.539Z,15.60
2024-02-13T04:14:36.010Z,15.60
2024-02-13T04:17:23.628Z,15.60
2024-02-13T04:20:12.695Z,15.50
2024-02-13T04:23:02.475Z,15.40
2024-02-13T04:25:50.503Z,15.70
2024-02-13T04:28:40.901Z,15.50
2024-02-13T04:31:28.894Z,15.50
2024-02-13T04:34:17.010Z,15.40
2024-02-13T04:37:04.733Z,15.40
2024-02-13T04:39:52.259Z,15.40
2024-02-13T04:42:41.037Z,15.50
2024-02-13T04:45:29.298Z,15.10
2024-02-13T04:48:17.091Z,15.00
2024-02-13T04:51:08.274Z,14.70
2024-02-13T04:53:55.994Z,15.30
2024-02-13T04:56:43.586Z,15.60
2024-02-13T04:59:38.910Z,15.60
2024-02-13T05:02:26.814Z,15.60
2024-02-13T05:05:33.828Z,15.60
2024-02-13T05:08:21.639Z,15.40
2024-02-13T05:11:09.375Z,15.20
2024-02-13T05:13:59.861Z,15.10
2024-02-13T05:16:48.703Z,15.30
2024-02-13T05:19:36.350Z,15.00
2024-02-13T05:22:23.848Z,15.10
2024-02-13T05:25:12.725Z,14.70
2024-02-13T05:28:01.517Z,14.90
2024-02-13T05:30:49.250Z,15.10
2024-02-13T05:33:37.954Z,15.10
2024-02-13T05:36:29.621Z,15.10
2024-02-13T05:39:17.236Z,15.00
2024-02-13T05:42:05.228Z,15.10
2024-02-13T05:44:52.780Z,15.10
2024-02-13T05:47:40.888Z,15.00
2024-02-13T05:50:29.410Z,14.80
2024-02-13T05:53:17.205Z,14.80
2024-02-13T05:56:05.642Z,14.80
2024-02-13T05:58:53.392Z,14.90
2024-02-13T06:01:41.040Z,15.00
2024-02-13T06:04:28.814Z,14.90
2024-02-13T06:07:16.539Z,14.70
2024-02-13T06:10:04.371Z,14.70
2024-02-13T06:12:52.344Z,14.90
2024-02-13T06:15:40.205Z,14.90
2024-02-13T06:18:27.943Z,14.80
2024-02-13T06:21:22.253Z,15.00
2024-02-13T06:24:11.320Z,14.90
2024-02-13T06:26:58.970Z,14.90
2024-02-13T06:29:46.591Z,15.00
2024-02-13T06:32:34.357Z,15.00
2024-02-13T06:35:22.011Z,15.00
2024-02-13T06:38:09.757Z,15.00
2024-02-13T06:40:59.181Z,15.20
2024-02-13T06:43:47.861Z,15.10
2024-02-13T06:46:35.435Z,15.10
2024-02-13T06:49:23.050Z,15.20
2024-02-13T06:52:11.114Z,15.40
2024-02-13T06:54:58.649Z,15.40
2024-02-13T06:57:46.250Z,15.30
2024-02-13T07:00:33.957Z,15.20
2024-02-13T07:03:22.802Z,15.50
2024-02-13T07:06:13.216Z,15.60
2024-02-13T07:09:01.385Z,15.60
2024-02-13T07:11:49.022Z,15.30
2024-02-13T07:14:36.761Z,15.50
2024-02-13T07:17:24.856Z,15.40
2024-02-13T07:20:13.017Z,15.70
2024-02-13T07:23:00.689Z,15.60
2024-02-13T07:25:49.809Z,15.90
2024-02-13T07:28:37.355Z,16.00
2024-02-13T07:31:24.887Z,16.00
2024-02-13T07:34:12.591Z,15.90
2024-02-13T07:37:00.246Z,16.00
2024-02-13T07:39:47.816Z,16.10
2024-02-13T07:42:35.418Z,15.60
2024-02-13T07:45:24.642Z,15.90
2024-02-13T07:48:13.460Z,16.20
2024-02-13T07:51:02.919Z,16.10
2024-02-13T07:53:50.596Z,16.20
2024-02-13T07:56:40.197Z,16.30
2024-02-13T07:59:27.838Z,16.20
2024-02-13T08:02:15.887Z,16.50
2024-02-13T08:05:03.737Z,16.80
2024-02-13T08:07:51.409Z,17.00
2024-02-13T08:10:39.685Z,17.00
2024-02-13T08:13:27.354Z,17.30
2024-02-13T08:16:15.429Z,17.40
2024-02-13T08:19:03.322Z,17.10
2024-02-13T08:21:51.018Z,17.00
2024-02-13T08:24:38.610Z,16.80
2024-02-13T08:27:27.020Z,17.40
2024-02-13T08:30:14.842Z,17.50
2024-02-13T08:33:03.108Z,17.70
2024-02-13T08:35:54.032Z,17.80
2024-02-13T08:38:44.758Z,17.40
2024-02-13T08:41:33.314Z,17.70
2024-02-13T08:44:20.938Z,17.80
2024-02-13T08:47:08.633Z,17.70
2024-02-13T08:49:56.755Z,17.90
2024-02-13T08:52:44.860Z,18.00
2024-02-13T08:55:32.527Z,17.70
2024-02-13T08:58:20.176Z,18.10
2024-02-13T09:01:08.090Z,18.00
2024-02-13T09:03:55.757Z,18.10
2024-02-13T09:06:43.455Z,18.30
2024-02-13T09:09:34.435Z,18.20
2024-02-13T09:12:22.188Z,18.30
2024-02-13T09:15:14.348Z,17.80
2024-02-13T09:18:02.116Z,17.50
2024-02-13T09:20:51.119Z,17.50
2024-02-13T09:23:39.017Z,17.90
2024-02-13T09:26:26.852Z,18.00
2024-02-13T09:29:14.442Z,17.80
2024-02-13T09:32:02.194Z,18.10
2024-02-13T09:34:49.887Z,17.90
2024-02-13T09:37:44.606Z,17.60
2024-02-13T09:40:33.820Z,17.50
2024-02-13T09:43:21.473Z,17.50
2024-02-13T09:46:10.731Z,17.70
2024-02-13T09:49:01.508Z,17.80
2024-02-13T09:51:54.655Z,17.90
2024-02-13T09:54:45.737Z,17.80
2024-02-13T09:57:33.774Z,18.10
2024-02-13T10:00:21.558Z,17.90
2024-02-13T10:03:09.379Z,18.20
2024-02-13T10:05:57.542Z,18.50
2024-02-13T10:08:51.267Z,18.70
2024-02-13T10:11:39.078Z,18.30
2024-02-13T10:14:26.794Z,18.00
2024-02-13T10:17:15.494Z,18.50
2024-02-13T10:20:05.130Z,18.30
2024-02-13T10:22:56.193Z,18.30
2024-02-13T10:25:48.268Z,18.60
2024-02-13T10:28:41.510Z,19.00
2024-02-13T10:31:35.860Z,18.90
2024-02-13T10:34:23.528Z,18.00
2024-02-13T10:37:13.422Z,18.30
2024-02-13T10:40:09.085Z,18.50
2024-02-13T10:42:59.646Z,18.30
2024-02-13T10:45:53.818Z,18.80
2024-02-13T10:49:02.047Z,18.90
2024-02-13T10:51:51.437Z,18.70
2024-02-13T10:54:47.440Z,19.00
2024-02-13T10:57:38.398Z,19.10
2024-02-13T11:00:27.822Z,19.10
2024-02-13T11:03:16.395Z,18.90
2024-02-13T11:06:04.399Z,18.90
2024-02-13T11:08:52.743Z,18.50
2024-02-13T11:11:46.340Z,18.40
2024-02-13T11:14:34.604Z,18.80
2024-02-13T11:17:22.247Z,19.00
2024-02-13T11:20:10.950Z,19.00
2024-02-13T11:23:01.790Z,19.30
2024-02-13T11:26:01.132Z,19.90
2024-02-13T11:28:49.989Z,19.70
2024-02-13T11:31:40.521Z,20.30
2024-02-13T11:34:44.648Z,19.80
2024-02-13T11:37:36.234Z,20.10
2024-02-13T11:40:23.949Z,19.60
2024-02-13T11:43:22.140Z,19.40
2024-02-13T11:46:09.665Z,19.50
2024-02-13T11:49:00.055Z,19.50
2024-02-13T11:51:49.199Z,19.10
2024-02-13T11:54:37.853Z,19.20
2024-02-13T11:57:28.669Z,19.40
2024-02-13T12:00:24.087Z,19.70
2024-02-13T12:03:13.131Z,19.90
2024-02-13T12:06:06.928Z,19.70
2024-02-13T12:08:55.346Z,19.70
2024-02-13T12:11:44.580Z,20.10
2024-02-13T12:14:32.510Z,19.90
2024-02-13T12:17:22.712Z,20.00
2024-02-13T12:20:20.392Z,19.90
2024-02-13T12:23:13.590Z,20.00
2024-02-13T12:26:07.993Z,19.70
2024-02-13T12:28:59.832Z,19.30
2024-02-13T12:31:48.975Z,19.50
2024-02-13T12:34:40.290Z,19.90
2024-02-13T12:37:32.340Z,19.90
2024-02-13T12:40:21.673Z,20.50
2024-02-13T12:43:09.877Z,20.60
2024-02-13T12:46:03.973Z,20.50
2024-02-13T12:48:52.813Z,20.60
2024-02-13T12:51:45.112Z,20.10
2024-02-13T12:54:36.901Z,20.40
2024-02-13T12:57:25.897Z,20.70
2024-02-13T13:00:16.132Z,20.50
2024-02-13T13:03:05.891Z,21.00
2024-02-13T13:05:53.750Z,20.80
2024-02-13T13:08:43.407Z,20.10
2024-02-13T13:11:31.389Z,20.00
2024-02-13T13:14:20.141Z,19.70
2024-02-13T13:17:08.915Z,19.30
2024-02-13T13:19:56.814Z,19.40
2024-02-13T13:22:47.785Z,19.30
2024-02-13T13:25:37.593Z,19.40
2024-02-13T13:28:27.661Z,19.50
2024-02-13T13:31:16.908Z,19.60
2024-02-13T13:34:09.317Z,19.40
2024-02-13T13:36:58.857Z,19.30
2024-02-13T13:39:46.470Z,19.30
2024-02-13T13:42:40.625Z,19.20
2024-02-13T13:45:28.641Z,19.30
2024-02-13T13:48:17.534Z,19.40
2024-02-13T13:51:05.675Z,19.60
2024-02-13T13:53:53.318Z,19.40
2024-02-13T13:56:42.074Z,19.20
2024-02-13T13:59:29.829Z,18.80
2024-02-13T14:02:17.517Z,18.80
2024-02-13T14:05:08.102Z,18.60
2024-02-13T14:07:55.632Z,18.50
2024-02-13T14:10:45.325Z,18.70
2024-02-13T14:13:34.142Z,18.90
2024-02-13T14:16:25.800Z,18.60
2024-02-13T14:19:13.506Z,18.70
2024-02-13T14:22:01.727Z,18.40
2024-02-13T14:24:49.497Z,18.50
2024-02-13T14:27:38.373Z,18.50
2024-02-13T14:30:27.116Z,18.30
2024-02-13T14:33:15.046Z,18.40
2024-02-13T14:36:04.542Z,18.40
2024-02-13T14:38:52.238Z,18.10
2024-02-13T14:41:42.679Z,18.30
2024-02-13T14:44:34.282Z,18.50
2024-02-13T14:47:23.445Z,18.40
2024-02-13T14:50:13.995Z,17.60
2024-02-13T14:53:01.703Z,18.20
2024-02-13T14:55:49.290Z,18.30
2024-02-13T14:58:39.639Z,18.40
2024-02-13T15:01:28.886Z,18.50
2024-02-13T15:04:17.266Z,18.20
2024-02-13T15:07:06.305Z,18.40
2024-02-13T15:09:53.971Z,18.50
2024-02-13T15:12:42.129Z,18.30
2024-02-13T15:15:32.531Z,18.30
2024-02-13T15:18:20.866Z,18.20
2024-02-13T15:21:08.602Z,18.00
2024-02-13T15:23:56.336Z,18.00
2024-02-13T15:26:50.389Z,17.90
2024-02-13T15:29:43.706Z,17.90
2024-02-13T15:32:31.874Z,17.80
2024-02-13T15:35:25.861Z,17.70
2024-02-13T15:38:32.344Z,17.50
2024-02-13T15:41:38.681Z,17.50
2024-02-13T15:44:44.494Z,17.60
2024-02-13T15:47:35.159Z,17.40
2024-02-13T15:50:24.315Z,17.50
2024-02-13T15:53:13.184Z,17.30
2024-02-13T15:56:01.085Z,17.10
2024-02-13T15:58:51.027Z,17.10
2024-02-13T16:01:38.596Z,16.90
2024-02-13T16:04:26.183Z,16.80
2024-02-13T16:07:16.681Z,16.60
2024-02-13T16:10:07.321Z,16.40
2024-02-13T16:12:56.413Z,16.30
2024-02-13T16:15:43.980Z,16.20
2024-02-13T16:18:31.805Z,16.10
2024-02-13T16:21:19.518Z,16.00
2024-02-13T16:24:08.405Z,15.90
2024-02-13T16:26:56.149Z,15.80
2024-02-13T16:29:43.726Z,15.60
2024-02-13T16:32:36.350Z,15.50
2024-02-13T16:35:28.103Z,15.40
2024-02-13T16:38:16.608Z,15.30
2024-02-13T16:41:04.396Z,15.30
2024-02-13T16:43:52.307Z,15.20
2024-02-13T16:46:39.848Z,15.10
2024-02-13T16:49:27.499Z,15.10
2024-02-13T16:52:15.525Z,15.00
2024-02-13T16:55:04.156Z,14.90
2024-02-13T16:57:53.278Z,14.70
2024-02-13T17:00:40.945Z,14.70
2024-02-13T17:03:28.770Z,14.80
2024-02-13T17:06:16.638Z,14.70
2024-02-13T17:09:04.757Z,14.60
2024-02-13T17:11:53.022Z,14.50
2024-02-13T17:14:41.821Z,14.40
2024-02-13T17:17:29.567Z,14.40
2024-02-13T17:20:18.533Z,14.40
2024-02-13T17:23:09.415Z,14.30
2024-02-13T17:25:56.971Z,14.20
2024-02-13T17:28:44.536Z,14.10
2024-02-13T17:31:32.218Z,14.00
2024-02-13T17:34:20.135Z,13.90
2024-02-13T17:37:08.659Z,13.90
2024-02-13T17:39:56.258Z,13.80
2024-02-13T17:42:45.435Z,13.70
2024-02-13T17:45:32.999Z,13.70
2024-02-13T17:48:21.486Z,13.60
2024-02-13T17:51:09.361Z,13.50
2024-02-13T17:53:56.980Z,13.50
2024-02-13T17:56:45.596Z,13.40
2024-02-13T17:59:35.106Z,13.30
2024-02-13T18:02:22.734Z,13.30
2024-02-13T18:05:10.807Z,13.20
2024-02-13T18:08:00.000Z,13.20
2024-02-13T18:10:47.615Z,13.10
2024-02-13T18:13:35.237Z,13.00
2024-02-13T18:16:22.757Z,13.10
2024-02-13T18:19:11.966Z,13.10
2024-02-13T18:21:59.839Z,13.10
2024-02-13T18:24:47.501Z,12.90
2024-02-13T18:27:35.092Z,12.90
2024-02-13T18:30:22.995Z,12.80
2024-02-13T18:33:10.758Z,12.80
2024-02-13T18:35:58.472Z,12.70
2024-02-13T18:38:46.621Z,12.60
2024-02-13T18:41:34.523Z,12.50
2024-02-13T18:44:23.978Z,12.50
2024-02-13T18:47:13.818Z,12.40
2024-02-13T18:50:02.623Z,12.30
2024-02-13T18:52:50.214Z,12.30
2024-02-13T18:55:38.108Z,12.20
2024-02-13T18:58:26.396Z,12.20
2024-02-13T19:01:14.004Z,12.10
2024-02-13T19:04:01.609Z,12.10
2024-02-13T19:06:50.442Z,12.10
2024-02-13T19:09:38.082Z,12.10
2024-02-13T19:12:25.733Z,12.00
2024-02-13T19:15:16.283Z,12.00
2024-02-13T19:18:04.434Z,12.00
2024-02-13T19:20:55.649Z,11.90
2024-02-13T19:23:43.278Z,11.90
2024-02-13T19:26:30.907Z,11.90
2024-02-13T19:29:18.434Z,11.80
2024-02-13T19:32:06.462Z,11.70
2024-02-13T19:34:54.057Z,11.70
2024-02-13T19:37:41.631Z,11.60
2024-02-13T19:40:29.198Z,11.60
2024-02-13T19:43:16.877Z,11.50
2024-02-13T19:46:05.046Z,11.50
2024-02-13T19:48:52.967Z,11.50
2024-02-13T19:51:40.739Z,11.50
2024-02-13T19:54:28.321Z,11.40
2024-02-13T19:57:16.362Z,11.40
2024-02-13T20:00:05.025Z,11.30
2024-02-13T20:02:52.801Z,11.20
2024-02-13T20:05:40.661Z,11.20
2024-02-13T20:08:28.355Z,11.20
2024-02-13T20:11:17.711Z,11.20
2024-02-13T20:14:05.678Z,11.10
2024-02-13T20:16:53.207Z,11.10
2024-02-13T20:19:41.560Z,11.10
2024-02-13T20:22:29.783Z,11.10
2024-02-13T20:25:17.544Z,11.10
2024-02-13T20:28:07.152Z,11.10
2024-02-13T20:30:55.590Z,11.00
2024-02-13T20:33:43.453Z,11.00
2024-02-13T20:36:31.382Z,11.00
2024-02-13T20:39:18.925Z,10.90
2024-02-13T20:42:06.612Z,10.90
2024-02-13T20:44:57.706Z,10.90
2024-02-13T20:47:47.065Z,11.00
2024-02-13T20:50:34.730Z,10.90
2024-02-13T20:53:25.631Z,10.90
2024-02-13T20:56:13.683Z,10.80
2024-02-13T20:59:01.240Z,10.70
2024-02-13T21:01:49.384Z,10.60
2024-02-13T21:04:37.221Z,10.50
2024-02-13T21:07:25.958Z,10.50
2024-02-13T21:10:13.570Z,10.40
2024-02-13T21:13:01.238Z,10.40
2024-02-13T21:15:48.802Z,10.40
2024-02-13T21:18:36.951Z,10.40
2024-02-13T21:21:43.136Z,10.30
2024-02-13T21:24:30.728Z,10.30
2024-02-13T21:27:18.529Z,10.30
2024-02-13T21:30:07.736Z,10.20
2024-02-13T21:32:55.439Z,10.30
2024-02-13T21:35:43.066Z,10.20
2024-02-13T21:38:30.678Z,10.20
2024-02-13T21:41:18.280Z,10.20
2024-02-13T21:44:06.018Z,10.20
2024-02-13T21:46:56.581Z,10.20
2024-02-13T21:49:44.205Z,10.10
2024-02-13T21:52:31.797Z,10.10
2024-02-13T21:55:19.336Z,10.10
2024-02-13T21:58:06.927Z,10.10
2024-02-13T22:00:54.593Z,10.10
2024-02-13T22:03:42.656Z,10.00
2024-02-13T22:06:30.748Z,9.90
2024-02-13T22:09:18.561Z,10.00
2024-02-13T22:12:08.139Z,9.90
2024-02-13T22:14:55.785Z,9.90
2024-02-13T22:17:43.519Z,9.90
2024-02-13T22:20:35.116Z,10.10
2024-02-13T22:23:22.989Z,10.00
2024-02-13T22:26:11.016Z,9.90
2024-02-13T22:28:58.599Z,10.00
2024-02-13T22:31:46.232Z,9.90
2024-02-13T22:34:33.842Z,9.90
2024-02-13T22:37:21.539Z,9.80
2024-02-13T22:40:09.800Z,9.70
2024-02-13T22:42:57.329Z,9.70
2024-02-13T22:45:44.931Z,9.60
2024-02-13T22:48:32.548Z,9.60
2024-02-13T22:51:20.208Z,9.50
2024-02-13T22:54:07.901Z,9.50
2024-02-13T22:56:57.713Z,9.50
2024-02-13T22:59:45.419Z,9.50
2024-02-13T23:02:33.043Z,9.40
2024-02-13T23:05:20.746Z,9.40
2024-02-13T23:08:09.523Z,9.40
2024-02-13T23:10:57.564Z,9.40
2024-02-13T23:13:49.564Z,9.40
2024-02-13T23:16:41.894Z,9.50
2024-02-13T23:19:29.424Z,9.50
2024-02-13T23:22:17.048Z,9.50
2024-02-13T23:25:06.607Z,9.40
2024-02-13T23:27:54.289Z,9.40
2024-02-13T23:30:44.447Z,9.40
2024-02-13T23:33:33.089Z,9.30
2024-02-13T23:36:21.293Z,9.30
2024-02-13T23:39:09.807Z,9.30
2024-02-13T23:41:57.460Z,9.10
2024-02-13T23:44:45.700Z,9.20
2024-02-13T23:47:33.320Z,9.20
2024-02-13T23:50:21.423Z,9.10
2024-02-13T23:53:09.214Z,9.10
2024-02-13T23:55:56.885Z,9.00
2024-02-13T23:58:44.580Z,9.00
